Flight Track Log - Related Links

Times and Time Zones

All times are in EDT time to prevent confusion due to time zone crossing. See the FLG4047 flight status page for this flight to view local times or setup timezone preferences in your user account.

Time Position Orientation Groundspeed Altitude Reporting Facility
EDT Latitude Longitude Course Direction KTS MPH feet Rate Location/Type
Sun 03:12:04 PM 40.6333 -73.8167 146° Southeast 155 178 1,800  Level New TRACON
Sun 03:13:43 PM 40.5758 -73.8422 199° South 190 219 6,000 2,717 Climbing New Center
Sun 03:14:00 PM 40.4187 -73.5687 143° Southeast  Level FlightAware
Sun 03:14:43 PM 40.5517 -73.7292 106° East 230 265 9,000  Level New Center
Sun 03:15:00 PM 40.3448 -73.5114 143° Southeast  Level FlightAware
Sun 03:15:44 PM 40.5056 -73.6533 129° Southeast 284 327 10,800  Level New Center
Sun 03:16:00 PM 40.2816 -73.4408 159° South  Level FlightAware
Sun 03:16:41 PM 40.4222 -73.5736 144° Southeast 325 374 13,000  Level New Center
Sun 03:17:00 PM 40.2157 -73.3676 146° Southeast  Level FlightAware
Sun 03:18:28 PM 40.2700 -73.4953 159° South 336 387 16,000  Level Washington Center
Sun 03:19:28 PM 40.1786 -73.5117 188° South 349 402 17,600 1,686 Climbing Washington Center
Sun 03:20:29 PM 40.1044 -73.5517 202° Southwest 340 391 19,400 1,672 Climbing Washington Center
Sun 03:21:30 PM 40.0261 -73.6003 205° Southwest 322 371 21,000 1,488 Climbing Washington Center
Sun 03:22:30 PM 39.9456 -73.6511 206° Southwest 317 365 22,400 1,119 Climbing Washington Center
Sun 03:23:28 PM 39.8694 -73.7072 210° Southwest 317 365 23,200 1,050 Climbing Washington Center
Sun 03:24:30 PM 39.7889 -73.7581 206° Southwest 312 359 24,500 1,180 Climbing Washington Center
Sun 03:25:30 PM 39.7044 -73.8194 209° Southwest 312 359 25,600 1,068 Climbing Washington Center
Sun 03:26:28 PM 39.6261 -73.8728 208° Southwest 317 365 26,600 1,008 Climbing Washington Center
Sun 03:27:29 PM 39.5478 -73.9256 207° Southwest 322 371 27,600 689 Climbing Washington Center
Sun 03:28:30 PM 39.4672 -73.9814 208° Southwest 322 371 28,000 203 Climbing Washington Center
Sun 03:29:27 PM 39.3867 -74.0450 211° Southwest 328 377 28,000  Level Washington Center
Sun 03:30:29 PM 39.3128 -74.1269 221° Southwest 343 395 28,000  Level Washington Center
Sun 03:31:30 PM 39.2344 -74.2089 219° Southwest 361 415 28,000  Level Washington Center
Sun 03:32:30 PM 39.1583 -74.2961 222° Southwest 373 429 28,000 -356 Level Washington Center
Sun 03:33:28 PM 39.0758 -74.3831 219° Southwest 378 435 27,300 -958 Descending Washington Center
Sun 03:34:29 PM 38.9975 -74.4697 221° Southwest 378 435 26,100 -639 Descending Washington Center
Sun 03:35:30 PM 38.9192 -74.5564 221° Southwest 378 435 26,000 -50 Descending Washington Center
Sun 03:36:30 PM 38.8406 -74.6403 220° Southwest 373 429 26,000  Level Washington Center
Sun 03:37:30 PM 38.7642 -74.7236 220° Southwest 373 429 26,000  Level Washington Center
Sun 03:38:28 PM 38.6897 -74.7964 217° Southwest 367 422 26,000  Level Washington Center
Sun 03:39:29 PM 38.6150 -74.8822 222° Southwest 362 417 26,000  Level Washington Center
Sun 03:40:30 PM 38.5406 -74.9600 219° Southwest 357 411 26,000  Level Washington Center
Sun 03:41:30 PM 38.4658 -75.0350 218° Southwest 357 411 26,000  Level Washington Center
Sun 03:42:28 PM 38.3953 -75.1094 220° Southwest 349 402 26,000  Level Washington Center
Sun 03:43:29 PM 38.3225 -75.1919 222° Southwest 349 402 26,000  Level Washington Center
Sun 03:44:30 PM 38.2478 -75.2744 221° Southwest 354 407 26,000 -655 Level Washington Center
Sun 03:45:28 PM 38.1750 -75.3486 219° Southwest 349 402 24,700 -1,361 Descending Washington Center
Sun 03:46:29 PM 38.1042 -75.4228 219° Southwest 343 395 23,300 -1,426 Descending Washington Center
Sun 03:47:30 PM 38.0292 -75.4917 216° Southwest 343 395 21,800 -1,587 Descending Washington Center
Sun 03:48:30 PM 37.9500 -75.5497 210° Southwest 338 389 20,100 -1,513 Descending Washington Center
Sun 03:49:29 PM 37.8792 -75.6050 212° Southwest 323 372 18,800 -1,500 Descending Washington Center
Sun 03:50:30 PM 37.8019 -75.6653 212° Southwest 318 366 17,100 -1,500 Descending Washington Center
Sun 03:51:09 PM 37.7478 -75.7022 208° Southwest 324 373 16,300 -1,158 Descending Washington Center
Sun 03:51:27 PM 37.7247 -75.7206 212° Southwest 318 366 16,000 -228 Descending Washington Center
Sun 03:52:28 PM 37.6494 -75.7781 211° Southwest 318 366 16,000 -344 Level Washington Center
Sun 03:53:29 PM 37.5869 -75.8514 223° Southwest 318 366 15,300 -945 Descending Washington Center
Sun 03:54:35 PM 37.5322 -75.9533 236° Southwest 305 351 14,000 -1,190 Descending Washington Center
Sun 03:55:30 PM 37.4944 -76.0289 238° Southwest 302 348 12,900 -1,043 Descending Washington Center
Sun 03:56:30 PM 37.4525 -76.1125 238° Southwest 302 348 12,000 -458 Descending Washington Center
Sun 03:57:28 PM 37.4083 -76.1853 233° Southwest 297 342 12,000  Level Washington Center
Sun 03:58:29 PM 37.3850 -76.2714 251° West 281 323 12,000  Level Washington Center
Sun 03:59:29 PM 37.3803 -76.3656 266° West 273 314 12,000 -446 Level Washington Center
Sun 04:00:30 PM 37.3753 -76.4647 266° West 279 321 11,100 -1,338 Descending Washington Center
Sun 04:01:39 PM 37.3642 -76.5822 263° West 248 285 9,100 -979 Descending Washington Center
Sun 04:03:40 PM 37.3500 -76.7667 265° West 264 304 8,000 -365 Descending Potomac TRACON
Sun 04:04:40 PM 37.3500 -76.8500 270° West 251 289 8,000 -550 Level Potomac TRACON
Sun 04:05:40 PM 37.3667 -76.9333 284° West 258 297 6,900 -1,200 Descending Potomac TRACON
Sun 04:06:40 PM 37.3833 -77.0167 284° West 260 299 5,600 -1,488 Descending Potomac TRACON
Sun 04:07:41 PM 37.4000 -77.1167 282° West 242 278 3,900 -1,672 Descending Potomac TRACON

Login

Don't have an account? Register now (free) for customized features, flight alerts, and more!